Time;durP1;ratioP1;P1;durP2;ratioP2;P2;SDS_P1;SDS_P2;PMS_P1;PMS_P2;Temp;Humidity;BMP_temperature;BMP_pressure;BME280_temperature;BME280_humidity;BME280_pressure;Samples;Min_cycle;Max_cycle;Signal;HPM_P1;HPM_P2
2024/01/06 00:01:30;;;;;;;5.65;3.17;;;5.40;99.90;;;4.62;100.00;100726.00;4185113;28;20404;-68
2024/01/06 00:03:31;;;;;;;6.38;3.53;;;5.40;99.90;;;4.53;100.00;100724.09;4185407;28;20049;-68
2024/01/06 00:05:31;;;;;;;7.82;3.50;;;5.30;99.90;;;4.46;100.00;100722.91;4185325;28;20032;-68
2024/01/06 00:07:32;;;;;;;8.98;3.55;;;5.20;99.90;;;4.42;100.00;100726.72;4185273;28;20029;-68
2024/01/06 00:09:33;;;;;;;8.68;3.72;;;5.10;99.90;;;4.40;100.00;100728.59;4184088;28;20500;-68
2024/01/06 00:11:34;;;;;;;8.35;3.28;;;5.10;99.90;;;4.45;100.00;100724.69;4185333;28;20519;-68
2024/01/06 00:13:36;;;;;;;5.05;3.33;;;5.10;99.90;;;4.45;100.00;100731.69;4185089;28;20404;-68
2024/01/06 00:15:37;;;;;;;7.47;3.45;;;5.10;99.90;;;4.43;100.00;100736.19;4185331;28;20044;-68
2024/01/06 00:17:38;;;;;;;7.18;3.50;;;5.10;99.90;;;4.41;100.00;100738.94;4185173;28;20469;-68
2024/01/06 00:19:39;;;;;;;7.85;3.90;;;5.20;99.90;;;4.37;100.00;100745.34;4185184;28;20032;-68
2024/01/06 00:21:39;;;;;;;5.57;3.63;;;5.10;99.90;;;4.38;100.00;100739.16;4217255;28;20101;-68
2024/01/06 00:23:41;;;;;;;7.25;3.90;;;5.10;99.90;;;4.42;100.00;100745.81;4185168;28;20029;-68
2024/01/06 00:25:42;;;;;;;7.07;4.00;;;5.10;99.90;;;4.36;100.00;100738.44;4217182;28;20028;-68
2024/01/06 00:27:42;;;;;;;7.55;3.45;;;5.10;99.90;;;4.37;100.00;100734.06;4185207;28;20029;-68
2024/01/06 00:29:43;;;;;;;5.80;3.50;;;5.10;99.90;;;4.34;100.00;100729.06;4185131;28;20031;-68
2024/01/06 00:31:44;;;;;;;9.52;3.53;;;5.10;99.90;;;4.32;100.00;100734.41;4214771;28;20046;-68
2024/01/06 00:33:45;;;;;;;7.82;3.70;;;5.10;99.90;;;4.37;100.00;100739.28;4181812;28;20502;-68
2024/01/06 00:35:46;;;;;;;8.32;3.50;;;5.10;99.90;;;4.38;100.00;100735.72;4185146;28;20480;-68
2024/01/06 00:37:46;;;;;;;6.07;3.70;;;5.10;99.90;;;4.30;100.00;100733.69;4183976;28;20025;-68
2024/01/06 00:39:47;;;;;;;7.80;4.40;;;5.10;99.90;;;4.23;100.00;100727.28;4185057;28;20029;-68
2024/01/06 00:41:48;;;;;;;5.45;3.55;;;5.00;99.90;;;4.16;100.00;100723.44;4183623;28;20025;-68
2024/01/06 00:43:49;;;;;;;6.03;3.22;;;5.00;99.90;;;4.16;100.00;100735.66;4184902;28;20025;-68
2024/01/06 00:45:50;;;;;;;6.68;3.72;;;5.00;99.90;;;4.10;100.00;100736.97;4185093;28;20075;-68
2024/01/06 00:47:51;;;;;;;4.95;3.53;;;4.90;99.90;;;4.06;100.00;100737.31;4184904;28;20117;-68
2024/01/06 00:49:51;;;;;;;7.97;3.22;;;4.80;99.90;;;4.06;100.00;100740.75;4185684;28;20021;-68
2024/01/06 00:51:52;;;;;;;5.15;3.00;;;4.80;99.90;;;4.05;100.00;100741.72;4188285;28;20029;-68
2024/01/06 00:53:53;;;;;;;7.28;4.03;;;4.80;99.90;;;4.06;100.00;100745.16;4188307;28;20067;-68
2024/01/06 00:55:54;;;;;;;5.88;3.55;;;4.70;99.90;;;4.06;100.00;100737.31;4188195;28;20048;-68
2024/01/06 00:57:55;;;;;;;9.75;3.78;;;4.80;99.90;;;4.09;100.00;100748.34;4187929;28;20506;-68
2024/01/06 00:59:56;;;;;;;10.65;4.00;;;4.80;99.90;;;4.06;100.00;100739.94;4186811;28;20033;-68
2024/01/06 01:01:56;;;;;;;6.22;3.47;;;4.80;99.90;;;3.99;100.00;100734.34;4188065;28;20427;-68
2024/01/06 01:03:57;;;;;;;6.57;4.18;;;4.70;99.90;;;3.99;100.00;100743.94;4187977;28;20405;-68
2024/01/06 01:05:58;;;;;;;7.57;3.95;;;4.70;99.90;;;3.98;100.00;100743.09;4203304;28;20013;-68
2024/01/06 01:07:59;;;;;;;7.40;4.30;;;4.70;99.90;;;4.00;100.00;100740.38;4187886;28;20472;-68
2024/01/06 01:10:00;;;;;;;5.72;3.83;;;4.70;99.90;;;4.00;100.00;100754.28;4186820;28;20075;-68
2024/01/06 01:12:01;;;;;;;10.70;3.95;;;4.70;99.90;;;3.97;100.00;100741.44;4187729;28;20040;-68
2024/01/06 01:14:01;;;;;;;8.68;4.30;;;4.70;99.90;;;3.97;100.00;100741.44;4220028;28;20054;-68
2024/01/06 01:16:03;;;;;;;10.18;3.67;;;4.70;99.90;;;3.95;100.00;100748.53;4185268;28;20059;-68
2024/01/06 01:18:04;;;;;;;6.72;3.75;;;4.70;99.90;;;3.95;100.00;100761.59;4186883;28;20025;-68
2024/01/06 01:20:06;;;;;;;8.07;3.47;;;4.70;99.90;;;3.96;100.00;100758.03;4186734;28;20033;-68
2024/01/06 01:22:07;;;;;;;8.43;3.75;;;4.70;99.90;;;3.98;100.00;100763.97;4187677;28;20515;-68
2024/01/06 01:24:08;;;;;;;6.82;3.97;;;4.70;99.90;;;4.01;100.00;100766.34;4187630;28;20079;-68
2024/01/06 01:26:09;;;;;;;6.03;3.40;;;4.70;99.90;;;3.97;100.00;100758.88;4186674;28;20035;-68
2024/01/06 01:28:09;;;;;;;9.70;3.70;;;4.70;99.90;;;4.00;100.00;100761.25;4186330;28;20021;-68
2024/01/06 01:30:11;;;;;;;5.82;3.50;;;4.70;99.90;;;4.07;100.00;100762.47;4187752;28;20021;-68
2024/01/06 01:32:12;;;;;;;6.47;2.67;;;4.80;99.90;;;4.11;100.00;100763.91;4186327;28;20037;-68
2024/01/06 01:34:13;;;;;;;5.35;3.17;;;4.80;99.90;;;3.98;100.00;100758.75;4186481;28;20032;-68
2024/01/06 01:36:14;;;;;;;6.03;2.80;;;4.70;99.90;;;3.93;100.00;100766.09;4187778;28;20052;-68
2024/01/06 01:38:14;;;;;;;6.13;2.75;;;4.70;99.90;;;4.00;100.00;100763.88;4169735;28;20049;-68
2024/01/06 01:40:15;;;;;;;7.13;3.00;;;4.70;99.90;;;3.94;100.00;100764.31;4187515;28;20495;-68
2024/01/06 01:42:16;;;;;;;4.43;2.90;;;4.70;99.90;;;3.85;100.00;100771.06;4186046;28;20029;-68
2024/01/06 01:44:18;;;;;;;5.68;2.88;;;4.60;99.90;;;3.88;100.00;100771.63;4187408;28;20037;-68
2024/01/06 01:46:19;;;;;;;6.00;3.15;;;4.70;99.90;;;3.89;100.00;100773.31;4187712;28;20020;-68
2024/01/06 01:48:23;;;;;;;8.55;2.70;;;4.60;99.90;;;3.95;100.00;100776.41;4187270;28;20500;-68
2024/01/06 01:50:27;;;;;;;5.50;2.70;;;4.60;99.90;;;3.93;100.00;100776.53;4186551;28;20174;-68
2024/01/06 01:52:28;;;;;;;5.22;2.38;;;4.60;99.90;;;3.99;100.00;100783.91;4186280;28;20047;-68
2024/01/06 01:54:29;;;;;;;4.35;3.00;;;4.70;99.90;;;4.04;100.00;100779.19;4186060;28;20460;-68
2024/01/06 01:56:36;;;;;;;4.18;2.42;;;4.70;99.90;;;3.99;100.00;100781.31;4185991;28;20491;-68
2024/01/06 01:58:37;;;;;;;10.80;3.55;;;4.70;99.90;;;3.96;100.00;100786.75;4218622;28;20073;-69
2024/01/06 02:00:38;;;;;;;5.13;2.15;;;4.70;99.90;;;3.94;100.00;100785.22;4219385;28;20028;-68
2024/01/06 02:02:39;;;;;;;7.45;2.70;;;4.70;99.90;;;3.90;100.00;100792.41;4184768;28;20116;-68
2024/01/06 02:04:40;;;;;;;5.93;3.05;;;4.60;99.90;;;3.91;100.00;100786.25;4186900;28;20397;-68
2024/01/06 02:06:41;;;;;;;6.05;3.20;;;4.70;99.90;;;3.86;100.00;100791.81;4187306;28;20024;-68
2024/01/06 02:08:41;;;;;;;4.38;2.03;;;4.60;99.90;;;3.93;100.00;100792.19;4186455;28;20025;-68
2024/01/06 02:10:42;;;;;;;5.80;2.22;;;4.70;99.90;;;3.96;100.00;100805.03;4185513;28;20029;-68
2024/01/06 02:12:43;;;;;;;6.78;2.88;;;4.70;99.90;;;3.85;100.00;100790.13;4218894;28;20115;-68
2024/01/06 02:14:44;;;;;;;5.57;2.30;;;4.70;99.90;;;3.92;100.00;100811.41;4185914;28;20111;-68
2024/01/06 02:16:45;;;;;;;9.48;2.53;;;4.70;99.90;;;3.98;100.00;100805.72;4185919;28;20051;-68
2024/01/06 02:18:46;;;;;;;9.25;2.88;;;4.70;99.90;;;3.94;100.00;100804.31;4186948;28;20025;-68
2024/01/06 02:20:48;;;;;;;6.72;2.42;;;4.70;99.90;;;3.97;100.00;100803.25;4218908;28;20028;-68
2024/01/06 02:22:49;;;;;;;6.82;2.65;;;4.70;99.90;;;3.94;100.00;100813.91;4218925;28;20032;-68
2024/01/06 02:24:50;;;;;;;4.85;2.28;;;4.70;99.90;;;3.97;100.00;100824.97;4218639;28;20394;-68
2024/01/06 02:26:51;;;;;;;5.65;2.20;;;4.70;99.90;;;3.91;100.00;100820.19;4185282;28;20171;-68
2024/01/06 02:28:52;;;;;;;7.50;2.30;;;4.70;99.90;;;3.99;100.00;100828.28;4186606;28;20392;-68
2024/01/06 02:30:53;;;;;;;4.55;2.10;;;4.70;99.90;;;4.00;100.00;100824.75;4186981;28;20021;-68
2024/01/06 02:32:54;;;;;;;5.22;1.90;;;4.70;99.90;;;3.97;100.00;100819.75;4187167;28;20032;-68
2024/01/06 02:34:54;;;;;;;4.43;2.05;;;4.70;99.90;;;4.01;100.00;100830.75;4185487;28;20096;-68
2024/01/06 02:36:55;;;;;;;5.38;2.20;;;4.70;99.90;;;4.02;100.00;100841.13;4186490;28;20040;-68
2024/01/06 02:38:56;;;;;;;4.70;1.77;;;4.70;99.90;;;3.99;100.00;100843.94;4185464;28;20017;-68
2024/01/06 02:40:57;;;;;;;3.10;1.80;;;4.70;99.90;;;4.01;100.00;100836.81;4186648;28;20021;-68
2024/01/06 02:42:59;;;;;;;4.80;1.95;;;4.70;99.90;;;4.07;100.00;100831.16;4186268;28;20022;-68
2024/01/06 02:44:59;;;;;;;3.38;1.48;;;4.80;99.90;;;4.00;100.00;100845.63;4185306;28;20029;-68
2024/01/06 02:47:00;;;;;;;3.83;2.00;;;4.70;99.90;;;3.96;100.00;100848.53;4186535;28;20028;-68
2024/01/06 02:49:01;;;;;;;7.30;1.83;;;4.70;99.90;;;3.97;100.00;100855.44;4186647;28;20025;-68
2024/01/06 02:51:02;;;;;;;6.00;2.03;;;4.70;99.90;;;3.93;100.00;100857.44;4185170;28;20025;-68
2024/01/06 02:53:03;;;;;;;4.60;1.90;;;4.70;99.90;;;3.85;100.00;100851.94;4186570;28;20448;-68
2024/01/06 02:55:05;;;;;;;5.75;1.73;;;4.70;99.90;;;3.79;100.00;100847.16;4218746;28;20028;-68
2024/01/06 02:57:05;;;;;;;7.63;2.40;;;4.60;99.90;;;3.92;100.00;100858.38;4186219;28;20032;-68
2024/01/06 02:59:06;;;;;;;7.00;1.90;;;4.60;99.90;;;3.97;100.00;100858.06;4186369;28;20025;-68
2024/01/06 03:01:07;;;;;;;6.53;2.33;;;4.60;99.90;;;3.95;100.00;100863.38;4186291;28;20037;-68
2024/01/06 03:03:08;;;;;;;7.10;2.38;;;4.70;99.90;;;3.93;100.00;100865.25;4218011;28;20024;-68
2024/01/06 03:05:10;;;;;;;2.90;1.45;;;4.70;99.90;;;3.84;100.00;100866.75;4186250;28;20036;-68
2024/01/06 03:07:11;;;;;;;4.13;1.85;;;4.60;99.90;;;3.78;100.00;100867.19;4186228;28;20016;-68
2024/01/06 03:09:12;;;;;;;8.25;2.28;;;4.60;99.90;;;3.75;100.00;100862.19;4185016;28;20512;-68
2024/01/06 03:11:12;;;;;;;3.95;1.92;;;4.50;99.90;;;3.76;100.00;100870.88;4186099;28;20024;-68
2024/01/06 03:13:13;;;;;;;4.22;1.75;;;4.50;99.90;;;3.76;100.00;100863.03;4185864;28;20036;-68
2024/01/06 03:15:14;;;;;;;2.67;1.95;;;4.50;99.90;;;3.81;100.00;100876.59;4186049;28;20634;-68
2024/01/06 03:17:15;;;;;;;5.93;1.83;;;4.50;99.90;;;3.88;100.00;100877.81;4218229;28;20082;-68
2024/01/06 03:19:16;;;;;;;4.57;2.00;;;4.60;99.90;;;3.99;100.00;100877.88;4185846;28;20048;-68
2024/01/06 03:21:19;;;;;;;4.75;2.30;;;4.70;99.90;;;4.06;100.00;100897.34;4186098;28;20036;-68
2024/01/06 03:23:20;;;;;;;5.70;1.83;;;4.70;99.90;;;4.11;100.00;100882.19;4185964;28;20024;-68
2024/01/06 03:25:21;;;;;;;5.45;1.60;;;4.80;99.90;;;4.30;100.00;100887.72;4218167;28;20069;-68
2024/01/06 03:27:22;;;;;;;6.40;2.47;;;4.90;99.90;;;4.36;100.00;100895.13;4184250;28;20020;-68
2024/01/06 03:29:22;;;;;;;4.85;1.67;;;5.00;99.90;;;4.35;100.00;100879.59;4186154;28;20025;-68
2024/01/06 03:31:23;;;;;;;6.65;2.45;;;5.10;99.90;;;4.42;100.00;100878.19;4185906;28;20021;-68
2024/01/06 03:33:24;;;;;;;5.82;2.28;;;5.10;99.90;;;4.46;100.00;100885.66;4185936;28;20111;-68
2024/01/06 03:35:25;;;;;;;5.13;2.08;;;5.20;99.90;;;4.55;100.00;100884.16;4212119;28;20070;-68
2024/01/06 03:37:26;;;;;;;3.35;1.98;;;5.20;99.90;;;4.58;100.00;100894.38;4185807;28;20480;-68
2024/01/06 03:39:27;;;;;;;6.13;2.08;;;5.30;99.90;;;4.63;100.00;100894.06;4185757;28;20059;-68
2024/01/06 03:41:28;;;;;;;4.95;2.08;;;5.30;99.90;;;4.64;100.00;100887.84;4185607;28;20443;-67
2024/01/06 03:43:29;;;;;;;6.40;1.67;;;5.30;99.90;;;4.62;100.00;100890.59;4185339;28;20388;-68
2024/01/06 03:45:29;;;;;;;6.35;1.92;;;5.40;99.90;;;4.67;100.00;100885.00;4217868;28;20035;-68
2024/01/06 03:47:30;;;;;;;3.92;2.05;;;5.40;99.90;;;4.69;100.00;100891.78;4184495;28;20029;-68
2024/01/06 03:49:31;;;;;;;4.47;1.73;;;5.40;99.90;;;4.72;100.00;100893.38;4217524;28;20020;-68
2024/01/06 03:51:32;;;;;;;6.45;2.05;;;5.40;99.90;;;4.72;100.00;100888.13;4185528;28;20028;-68
2024/01/06 03:53:33;;;;;;;3.20;2.10;;;5.40;99.90;;;4.72;100.00;100895.97;4185591;28;20024;-68
2024/01/06 03:55:34;;;;;;;3.65;1.42;;;5.40;99.90;;;4.69;100.00;100899.63;4185555;28;20143;-68
2024/01/06 03:57:34;;;;;;;5.97;1.90;;;5.40;99.90;;;4.66;100.00;100901.66;4217532;28;20024;-68
2024/01/06 03:59:35;;;;;;;5.47;2.17;;;5.40;99.90;;;4.61;100.00;100898.53;4184129;28;20036;-68
2024/01/06 04:01:36;;;;;;;5.57;1.67;;;5.40;99.90;;;4.61;100.00;100895.91;4185358;28;20025;-68
2024/01/06 04:03:40;;;;;;;10.43;1.85;;;5.40;99.90;;;4.59;100.00;100903.06;4217449;28;20042;-68
2024/01/06 04:05:41;;;;;;;3.65;1.77;;;5.40;99.90;;;4.57;100.00;100910.19;4184124;28;20021;-68
2024/01/06 04:07:41;;;;;;;5.57;2.00;;;5.30;99.90;;;4.50;100.00;100901.13;4185273;28;20039;-68
2024/01/06 04:09:43;;;;;;;3.90;1.70;;;5.30;99.90;;;4.56;100.00;100905.88;4182810;28;20048;-68
2024/01/06 04:11:44;;;;;;;3.65;1.98;;;5.30;99.90;;;4.57;100.00;100915.41;4185301;28;20040;-68
2024/01/06 04:13:45;;;;;;;5.10;1.77;;;5.30;99.90;;;4.56;100.00;100913.72;4217478;28;20028;-68
2024/01/06 04:15:46;;;;;;;3.90;1.90;;;5.30;99.90;;;4.59;100.00;100919.56;4184128;28;20029;-68
2024/01/06 04:17:49;;;;;;;3.38;1.50;;;5.30;99.90;;;4.60;100.00;100920.41;4185261;28;20021;-68
2024/01/06 04:19:50;;;;;;;2.75;1.48;;;5.30;99.90;;;4.64;100.00;100919.22;4200940;28;20399;-68
2024/01/06 04:21:51;;;;;;;2.97;1.65;;;5.30;99.90;;;4.63;100.00;100918.38;4185223;28;20036;-68
2024/01/06 04:23:52;;;;;;;6.43;1.65;;;5.30;99.90;;;4.67;100.00;100911.16;4183885;28;20029;-68
2024/01/06 04:25:52;;;;;;;2.80;1.40;;;5.30;99.90;;;4.65;100.00;100898.22;4184467;28;20036;-68
2024/01/06 04:27:53;;;;;;;3.70;1.60;;;5.30;99.90;;;4.68;100.00;100905.81;4217165;28;20046;-68
2024/01/06 04:29:54;;;;;;;4.15;1.20;;;5.40;99.90;;;4.66;100.00;100915.53;4216163;28;20019;-68
2024/01/06 04:31:55;;;;;;;4.05;1.42;;;5.40;99.90;;;4.68;100.00;100912.81;4179641;28;20024;-68
2024/01/06 04:33:56;;;;;;;3.13;1.40;;;5.40;99.90;;;4.72;100.00;100916.88;4184957;28;20021;-68
2024/01/06 04:35:58;;;;;;;4.15;1.42;;;5.40;99.90;;;4.72;100.00;100917.69;4185164;28;20078;-68
2024/01/06 04:37:59;;;;;;;4.40;1.23;;;5.40;99.90;;;4.71;100.00;100915.19;4183844;28;20033;-68
2024/01/06 04:40:01;;;;;;;6.70;1.45;;;5.40;99.90;;;4.66;100.00;100917.34;4183853;28;20032;-67
2024/01/06 04:42:01;;;;;;;3.45;1.30;;;5.40;99.90;;;4.64;100.00;100927.03;4184626;28;20274;-68
2024/01/06 04:44:02;;;;;;;2.72;1.30;;;5.40;99.90;;;4.63;100.00;100943.69;4185106;28;20397;-68
2024/01/06 04:46:03;;;;;;;2.97;1.52;;;5.30;99.90;;;4.61;100.00;100942.94;4185016;28;20029;-68
2024/01/06 04:48:05;;;;;;;3.03;1.35;;;5.30;99.90;;;4.61;100.00;100940.34;4185133;28;20028;-68
2024/01/06 04:50:07;;;;;;;4.97;1.70;;;5.30;99.90;;;4.55;100.00;100935.56;4184764;28;20047;-68
2024/01/06 04:52:08;;;;;;;2.88;1.50;;;5.30;99.90;;;4.55;100.00;100943.41;4182020;28;20104;-68
2024/01/06 04:54:08;;;;;;;4.65;1.50;;;5.20;99.90;;;4.47;100.00;100943.97;4175920;28;20095;-68
2024/01/06 04:56:09;;;;;;;5.00;1.50;;;5.20;99.90;;;4.50;100.00;100958.59;4183760;28;20025;-68
2024/01/06 04:58:10;;;;;;;4.15;1.60;;;5.20;99.90;;;4.54;100.00;100960.03;4183312;28;20080;-68
2024/01/06 05:00:12;;;;;;;5.18;1.40;;;5.30;99.90;;;4.61;100.00;100958.63;4183754;28;20029;-68
2024/01/06 05:02:13;;;;;;;2.47;1.20;;;5.30;99.90;;;4.69;100.00;100964.94;4184516;28;20147;-68
2024/01/06 05:04:14;;;;;;;3.35;1.15;;;5.40;99.90;;;4.73;100.00;100961.16;4183721;28;20587;-68
2024/01/06 05:06:15;;;;;;;5.65;1.35;;;5.40;99.90;;;4.79;100.00;100965.94;4184812;28;20040;-68
2024/01/06 05:08:17;;;;;;;6.22;1.25;;;5.50;99.90;;;4.78;100.00;100968.69;4184984;28;20075;-68
2024/01/06 05:10:18;;;;;;;3.45;1.20;;;5.50;99.90;;;4.87;100.00;100970.59;4214775;28;20067;-68
2024/01/06 05:12:19;;;;;;;3.50;1.58;;;5.50;99.90;;;4.80;100.00;100962.41;4180450;28;20485;-67
2024/01/06 05:14:19;;;;;;;3.13;1.35;;;5.50;99.90;;;4.78;100.00;100969.50;4181742;28;20032;-68
2024/01/06 05:16:20;;;;;;;3.72;1.40;;;5.50;99.90;;;4.69;100.00;100969.38;4184955;28;20029;-68
2024/01/06 05:18:21;;;;;;;3.92;1.20;;;5.50;99.90;;;4.64;100.00;100979.28;4183888;28;20118;-68
2024/01/06 05:20:23;;;;;;;4.40;1.42;;;5.40;99.90;;;4.56;100.00;100979.88;4184424;28;20029;-68
2024/01/06 05:22:24;;;;;;;3.75;1.30;;;5.40;99.90;;;4.52;100.00;100982.81;4211797;28;20027;-68
2024/01/06 05:24:24;;;;;;;5.00;1.42;;;5.30;99.90;;;4.47;100.00;100970.94;4171431;28;20104;-68
2024/01/06 05:26:25;;;;;;;3.90;1.02;;;5.30;99.90;;;4.44;100.00;100971.16;4184787;28;20071;-68
2024/01/06 05:28:26;;;;;;;5.72;1.05;;;5.20;99.90;;;4.42;100.00;100977.44;4184473;28;20061;-68
2024/01/06 05:30:27;;;;;;;2.38;0.85;;;5.20;99.90;;;4.37;100.00;100992.59;4216792;28;20027;-68
2024/01/06 05:32:28;;;;;;;3.33;1.45;;;5.20;99.90;;;4.36;100.00;100989.13;4182396;28;20037;-68
2024/01/06 05:34:29;;;;;;;3.17;1.30;;;5.20;99.90;;;4.37;100.00;101001.25;4166938;28;20528;-68
2024/01/06 05:36:30;;;;;;;4.00;1.50;;;5.10;99.90;;;4.30;100.00;101000.03;4183470;28;20025;-68
2024/01/06 05:38:31;;;;;;;3.58;1.20;;;5.10;99.90;;;4.26;100.00;100998.59;4187562;28;20488;-68
2024/01/06 05:40:31;;;;;;;2.38;0.98;;;5.10;99.90;;;4.41;100.00;101002.72;4187590;28;20055;-68
2024/01/06 05:42:32;;;;;;;2.92;0.95;;;5.10;99.90;;;4.48;100.00;101010.91;4187381;28;20028;-68
2024/01/06 05:44:37;;;;;;;5.93;0.90;;;5.20;99.90;;;4.54;100.00;101002.63;4187729;28;20021;-68
2024/01/06 05:46:37;;;;;;;5.13;1.27;;;5.20;99.90;;;4.57;100.00;101007.63;4187461;28;20021;-68
2024/01/06 05:48:40;;;;;;;1.88;1.20;;;5.30;99.90;;;4.59;100.00;101005.78;4187612;28;20025;-67
2024/01/06 05:50:41;;;;;;;2.53;1.30;;;5.30;99.90;;;4.60;100.00;101001.38;4187455;28;20017;-68
2024/01/06 05:52:43;;;;;;;2.33;0.90;;;5.30;99.90;;;4.67;100.00;101005.19;4212632;28;20040;-68
2024/01/06 05:54:44;;;;;;;3.60;1.75;;;5.40;99.90;;;4.64;100.00;101008.03;4183028;28;20036;-68
2024/01/06 05:56:44;;;;;;;4.20;1.83;;;5.40;99.90;;;4.67;100.00;101015.66;4187229;28;20104;-68
2024/01/06 05:58:45;;;;;;;4.22;1.67;;;5.40;99.90;;;4.60;100.00;101022.28;4187484;28;20029;-68
2024/01/06 06:00:46;;;;;;;4.10;1.70;;;5.40;99.90;;;4.57;100.00;101017.28;4187158;28;20082;-68
2024/01/06 06:02:48;;;;;;;2.92;1.30;;;5.30;99.90;;;4.52;100.00;101014.16;4187017;28;20025;-67
2024/01/06 06:04:48;;;;;;;2.55;1.23;;;5.30;99.90;;;4.50;100.00;101021.28;4186082;28;20032;-68
2024/01/06 06:06:49;;;;;;;3.70;1.50;;;5.30;99.90;;;4.50;100.00;101022.09;4187194;28;20404;-68
2024/01/06 06:08:50;;;;;;;6.50;1.85;;;5.30;99.90;;;4.52;100.00;101019.38;4184947;28;20032;-68
2024/01/06 06:11:10;;;;;;;4.30;1.52;;;5.20;99.90;;;4.50;100.00;101016.03;4186702;28;20045;-68
2024/01/06 06:13:11;;;;;;;6.78;1.60;;;5.30;99.90;;;4.54;100.00;101027.97;4207573;28;20036;-68
2024/01/06 06:15:12;;;;;;;6.35;1.95;;;5.30;99.90;;;4.60;100.00;101032.75;4187032;28;20489;-68
2024/01/06 06:17:13;;;;;;;3.85;1.40;;;5.30;99.90;;;4.64;100.00;101042.84;4186976;28;20032;-68
2024/01/06 06:19:14;;;;;;;1.90;0.93;;;5.30;99.90;;;4.74;100.00;101043.84;4186916;28;20033;-68
2024/01/06 06:21:14;;;;;;;3.80;1.10;;;5.40;99.90;;;4.79;100.00;101039.13;4187039;28;20035;-68
2024/01/06 06:23:15;;;;;;;3.30;1.40;;;5.50;99.90;;;4.83;100.00;101035.34;4183279;28;20025;-68
2024/01/06 06:25:16;;;;;;;5.38;1.00;;;5.50;99.90;;;4.89;100.00;101052.34;4186907;28;20021;-68
2024/01/06 06:27:17;;;;;;;3.55;1.05;;;5.60;99.90;;;4.94;100.00;101052.84;4186500;28;20029;-68
2024/01/06 06:29:18;;;;;;;4.20;0.93;;;5.60;99.90;;;4.98;100.00;101054.28;4186982;28;20403;-68
2024/01/06 06:31:19;;;;;;;3.22;1.02;;;5.70;99.90;;;5.00;100.00;101055.00;4186881;28;20380;-68
2024/01/06 06:33:19;;;;;;;5.82;1.10;;;5.70;99.90;;;5.06;100.00;101065.00;4185280;28;20033;-68
2024/01/06 06:35:23;;;;;;;2.95;0.73;;;5.70;99.90;;;5.11;100.00;101073.34;4183806;28;20396;-68
2024/01/06 06:37:23;;;;;;;4.75;1.10;;;5.80;99.90;;;5.10;100.00;101079.53;4185176;28;20033;-68
2024/01/06 06:39:24;;;;;;;5.32;1.20;;;5.80;99.90;;;5.14;100.00;101074.94;4185092;28;20393;-68
2024/01/06 06:41:25;;;;;;;2.63;0.80;;;5.80;99.90;;;5.18;100.00;101071.97;4168453;28;20414;-68
2024/01/06 06:43:26;;;;;;;2.03;0.88;;;5.90;99.90;;;5.21;100.00;101066.50;4185769;28;20088;-69
2024/01/06 06:45:27;;;;;;;2.30;0.90;;;5.90;99.90;;;5.22;100.00;101072.56;4218246;28;20024;-69
2024/01/06 06:47:28;;;;;;;4.50;1.08;;;5.90;99.90;;;5.27;100.00;101076.50;4185702;28;20021;-69
2024/01/06 06:49:29;;;;;;;2.65;1.10;;;5.90;99.90;;;5.22;100.00;101078.63;4186117;28;20017;-68
2024/01/06 06:51:30;;;;;;;2.88;0.77;;;5.90;99.90;;;5.25;100.00;101081.03;4184874;28;20024;-68
2024/01/06 06:53:31;;;;;;;5.13;1.25;;;5.90;99.90;;;5.27;100.00;101089.59;4186116;28;20059;-68
2024/01/06 06:55:32;;;;;;;3.55;1.75;;;6.00;99.90;;;5.32;100.00;101092.69;4184775;28;20029;-68
2024/01/06 06:57:32;;;;;;;5.30;1.42;;;6.00;99.90;;;5.36;100.00;101101.97;4186277;28;20029;-68
2024/01/06 06:59:33;;;;;;;4.03;1.10;;;6.00;99.90;;;5.33;100.00;101096.13;4186277;28;20503;-69
2024/01/06 07:01:35;;;;;;;2.58;0.90;;;6.00;99.90;;;5.35;100.00;101094.22;4186147;28;20412;-68
2024/01/06 07:03:36;;;;;;;3.67;1.00;;;6.00;99.90;;;5.37;100.00;101101.03;4211154;28;20036;-68
2024/01/06 07:05:37;;;;;;;4.80;0.82;;;6.00;99.90;;;5.35;100.00;101102.09;4186356;28;20099;-68
2024/01/06 07:07:37;;;;;;;3.50;0.95;;;6.00;99.90;;;5.33;100.00;101106.59;4218508;28;20028;-68
2024/01/06 07:09:40;;;;;;;6.32;1.17;;;6.00;99.90;;;5.29;100.00;101113.84;4184645;28;20041;-68
2024/01/06 07:11:40;;;;;;;2.50;0.80;;;6.00;99.90;;;5.25;100.00;101104.56;4182935;28;20018;-68
2024/01/06 07:13:41;;;;;;;1.95;0.88;;;5.90;99.90;;;5.19;100.00;101110.25;4185387;28;20082;-68
2024/01/06 07:15:42;;;;;;;3.25;0.88;;;5.90;99.90;;;5.11;100.00;101109.94;4185809;28;20029;-68
2024/01/06 07:17:43;;;;;;;4.53;0.98;;;5.80;99.90;;;5.00;100.00;101112.53;4186495;28;20029;-68
2024/01/06 07:19:44;;;;;;;4.32;1.13;;;5.70;99.90;;;4.89;100.00;101117.69;4186242;28;20075;-68
2024/01/06 07:21:45;;;;;;;8.85;1.52;;;5.60;99.90;;;4.78;100.00;101128.09;4184685;28;20028;-68
2024/01/06 07:23:46;;;;;;;2.35;0.90;;;5.50;99.90;;;4.70;100.00;101131.25;4182069;28;20024;-68
2024/01/06 07:25:47;;;;;;;4.65;0.90;;;5.50;99.90;;;4.63;100.00;101139.63;4185763;28;20044;-68
2024/01/06 07:27:48;;;;;;;6.32;1.30;;;5.40;99.90;;;4.61;100.00;101133.66;4192298;28;20024;-68
2024/01/06 07:29:49;;;;;;;5.47;2.10;;;5.40;99.90;;;4.65;100.00;101132.50;4184668;28;20025;-68
2024/01/06 07:31:50;;;;;;;3.53;1.60;;;5.40;99.90;;;4.60;100.00;101132.00;4184692;28;20370;-68
2024/01/06 07:33:50;;;;;;;7.03;1.25;;;5.40;99.90;;;4.55;100.00;101131.47;4184411;28;20033;-68
2024/01/06 07:35:51;;;;;;;2.97;2.05;;;5.30;99.90;;;4.53;100.00;101133.38;4217963;28;20023;-68
2024/01/06 07:37:53;;;;;;;5.90;2.13;;;5.30;99.90;;;4.45;100.00;101145.19;4184067;28;20454;-68
2024/01/06 07:39:53;;;;;;;5.03;1.55;;;5.30;99.90;;;4.39;100.00;101137.78;4185860;28;20029;-68
2024/01/06 07:41:54;;;;;;;3.78;1.48;;;5.20;99.90;;;4.28;100.00;101137.69;4184722;28;20020;-68
2024/01/06 07:43:55;;;;;;;8.77;1.90;;;5.10;99.90;;;4.18;100.00;101141.88;4205095;28;20028;-68
2024/01/06 07:45:56;;;;;;;6.13;2.22;;;5.00;99.90;;;4.11;100.00;101142.41;4182936;28;20075;-68
2024/01/06 07:48:00;;;;;;;5.68;1.80;;;4.90;99.90;;;4.02;100.00;101146.50;4182769;28;20025;-68
2024/01/06 07:50:04;;;;;;;4.55;1.60;;;4.80;99.90;;;3.96;100.00;101159.94;4184727;28;20449;-68
2024/01/06 07:52:05;;;;;;;6.07;2.03;;;4.80;99.90;;;3.92;100.00;101159.31;4214525;28;20098;-68
2024/01/06 07:54:08;;;;;;;7.68;2.25;;;4.70;99.90;;;3.93;100.00;101157.56;4200187;28;20044;-68
2024/01/06 07:56:09;;;;;;;9.45;2.55;;;4.70;99.90;;;4.06;100.00;101173.22;4184287;28;20032;-68
2024/01/06 07:58:11;;;;;;;8.75;2.30;;;4.80;99.90;;;4.20;100.00;101176.56;4217135;28;20035;-68
2024/01/06 08:00:16;;;;;;;6.22;2.45;;;4.90;99.90;;;4.31;100.00;101179.28;4183527;28;20064;-68
2024/01/06 08:02:17;;;;;;;6.15;2.75;;;4.90;99.90;;;4.41;100.00;101189.91;4184215;28;20404;-68
2024/01/06 08:04:17;;;;;;;9.45;1.73;;;5.10;99.90;;;4.46;100.00;101193.88;4178784;28;20025;-68
2024/01/06 08:06:19;;;;;;;4.57;1.42;;;5.10;99.90;;;4.52;100.00;101194.41;4217401;28;20032;-68
2024/01/06 08:08:19;;;;;;;8.35;1.65;;;5.20;99.90;;;4.61;100.00;101207.66;4185371;28;20029;-68
2024/01/06 08:10:20;;;;;;;7.60;2.30;;;5.30;99.90;;;4.71;100.00;101195.63;4216286;28;20052;-68
2024/01/06 08:12:21;;;;;;;9.15;1.70;;;5.40;99.90;;;4.78;100.00;101194.25;4183340;28;20024;-68
2024/01/06 08:14:22;;;;;;;14.23;2.10;;;5.40;99.90;;;4.78;100.00;101193.44;4181839;28;20059;-68
2024/01/06 08:16:23;;;;;;;6.20;1.60;;;5.50;99.90;;;4.80;100.00;101196.75;4185346;28;20037;-68
2024/01/06 08:18:24;;;;;;;7.60;2.10;;;5.50;99.90;;;4.79;100.00;101202.94;4185252;28;20024;-68
2024/01/06 08:20:25;;;;;;;8.57;2.60;;;5.50;99.90;;;4.80;100.00;101204.59;4185194;28;20029;-68
2024/01/06 08:22:25;;;;;;;5.88;1.67;;;5.50;99.90;;;4.85;100.00;101205.09;4184916;28;20029;-68
2024/01/06 08:24:26;;;;;;;4.10;1.27;;;5.50;99.90;;;4.95;100.00;101206.13;4185251;28;20086;-68
2024/01/06 08:26:27;;;;;;;11.20;2.08;;;5.60;99.90;;;5.01;100.00;101201.31;4185190;28;20396;-68
2024/01/06 08:28:28;;;;;;;10.27;2.00;;;5.70;99.90;;;5.15;100.00;101197.69;4217236;28;20080;-68
2024/01/06 08:30:29;;;;;;;6.15;2.47;;;5.80;99.90;;;5.30;100.00;101206.22;4185032;28;20017;-68